sensor_id;sensor_type;location;lat;lon;timestamp;temperature;humidity
37285;DHT22;23172;53.550;9.964;2024-03-08T00:03:29;5.80;91.50
37285;DHT22;23172;53.550;9.964;2024-03-08T00:08:31;5.70;91.40
37285;DHT22;23172;53.550;9.964;2024-03-08T00:13:35;5.70;91.60
37285;DHT22;23172;53.550;9.964;2024-03-08T00:18:37;5.70;91.70
37285;DHT22;23172;53.550;9.964;2024-03-08T00:23:39;5.60;91.90
37285;DHT22;23172;53.550;9.964;2024-03-08T00:28:42;5.60;92.00
37285;DHT22;23172;53.550;9.964;2024-03-08T00:33:44;5.60;92.10
37285;DHT22;23172;53.550;9.964;2024-03-08T00:38:46;5.50;92.10
37285;DHT22;23172;53.550;9.964;2024-03-08T00:43:49;5.50;92.30
37285;DHT22;23172;53.550;9.964;2024-03-08T00:48:51;5.40;92.40
37285;DHT22;23172;53.550;9.964;2024-03-08T00:53:53;5.40;92.50
37285;DHT22;23172;53.550;9.964;2024-03-08T00:58:56;5.40;92.60
37285;DHT22;23172;53.550;9.964;2024-03-08T01:03:58;5.40;92.70
37285;DHT22;23172;53.550;9.964;2024-03-08T01:09:00;5.40;92.80
37285;DHT22;23172;53.550;9.964;2024-03-08T01:14:03;5.40;92.90
37285;DHT22;23172;53.550;9.964;2024-03-08T01:19:05;5.30;92.90
37285;DHT22;23172;53.550;9.964;2024-03-08T01:24:07;5.30;93.10
37285;DHT22;23172;53.550;9.964;2024-03-08T01:29:10;5.30;93.20
37285;DHT22;23172;53.550;9.964;2024-03-08T01:34:12;5.20;93.30
37285;DHT22;23172;53.550;9.964;2024-03-08T01:39:14;5.10;93.40
37285;DHT22;23172;53.550;9.964;2024-03-08T01:44:19;5.10;93.50
37285;DHT22;23172;53.550;9.964;2024-03-08T01:49:22;5.10;93.70
37285;DHT22;23172;53.550;9.964;2024-03-08T01:54:24;5.10;93.80
37285;DHT22;23172;53.550;9.964;2024-03-08T01:59:28;5.10;93.90
37285;DHT22;23172;53.550;9.964;2024-03-08T02:04:30;5.00;94.00
37285;DHT22;23172;53.550;9.964;2024-03-08T02:09:32;5.00;94.10
37285;DHT22;23172;53.550;9.964;2024-03-08T02:14:35;5.00;94.20
37285;DHT22;23172;53.550;9.964;2024-03-08T02:19:37;5.00;94.40
37285;DHT22;23172;53.550;9.964;2024-03-08T02:24:40;4.90;94.50
37285;DHT22;23172;53.550;9.964;2024-03-08T02:29:42;4.90;94.60
37285;DHT22;23172;53.550;9.964;2024-03-08T02:34:45;4.80;94.70
37285;DHT22;23172;53.550;9.964;2024-03-08T02:39:49;4.80;94.80
37285;DHT22;23172;53.550;9.964;2024-03-08T02:44:51;4.80;95.00
37285;DHT22;23172;53.550;9.964;2024-03-08T02:49:52;4.80;95.10
37285;DHT22;23172;53.550;9.964;2024-03-08T02:54:56;4.80;95.10
37285;DHT22;23172;53.550;9.964;2024-03-08T02:59:58;4.70;95.20
37285;DHT22;23172;53.550;9.964;2024-03-08T03:05:01;4.70;95.30
37285;DHT22;23172;53.550;9.964;2024-03-08T03:10:08;4.70;95.40
37285;DHT22;23172;53.550;9.964;2024-03-08T03:15:10;4.60;95.50
37285;DHT22;23172;53.550;9.964;2024-03-08T03:20:13;4.60;95.70
37285;DHT22;23172;53.550;9.964;2024-03-08T03:25:24;4.60;95.80
37285;DHT22;23172;53.550;9.964;2024-03-08T03:30:29;4.50;95.90
37285;DHT22;23172;53.550;9.964;2024-03-08T03:35:33;4.50;96.10
37285;DHT22;23172;53.550;9.964;2024-03-08T03:40:38;4.40;96.20
37285;DHT22;23172;53.550;9.964;2024-03-08T03:45:41;4.40;96.30
37285;DHT22;23172;53.550;9.964;2024-03-08T03:50:43;4.40;96.50
37285;DHT22;23172;53.550;9.964;2024-03-08T03:55:47;4.40;96.50
37285;DHT22;23172;53.550;9.964;2024-03-08T04:00:48;4.30;96.70
37285;DHT22;23172;53.550;9.964;2024-03-08T04:05:50;4.30;96.70
37285;DHT22;23172;53.550;9.964;2024-03-08T04:10:54;4.30;96.80
37285;DHT22;23172;53.550;9.964;2024-03-08T04:15:55;4.30;96.90
37285;DHT22;23172;53.550;9.964;2024-03-08T04:20:57;4.20;97.00
37285;DHT22;23172;53.550;9.964;2024-03-08T04:26:01;4.20;97.10
37285;DHT22;23172;53.550;9.964;2024-03-08T04:31:03;4.20;97.20
37285;DHT22;23172;53.550;9.964;2024-03-08T04:36:05;4.20;97.20
37285;DHT22;23172;53.550;9.964;2024-03-08T04:41:09;4.20;97.30
37285;DHT22;23172;53.550;9.964;2024-03-08T04:46:11;4.20;97.40
37285;DHT22;23172;53.550;9.964;2024-03-08T04:51:13;4.10;97.40
37285;DHT22;23172;53.550;9.964;2024-03-08T04:56:17;4.10;97.50
37285;DHT22;23172;53.550;9.964;2024-03-08T05:01:19;4.10;97.60
37285;DHT22;23172;53.550;9.964;2024-03-08T05:06:22;4.10;97.70
37285;DHT22;23172;53.550;9.964;2024-03-08T05:11:25;4.00;97.70
37285;DHT22;23172;53.550;9.964;2024-03-08T05:16:27;4.00;97.80
37285;DHT22;23172;53.550;9.964;2024-03-08T05:21:29;4.00;97.80
37285;DHT22;23172;53.550;9.964;2024-03-08T05:26:32;4.00;97.90
37285;DHT22;23172;53.550;9.964;2024-03-08T05:31:41;3.90;97.90
37285;DHT22;23172;53.550;9.964;2024-03-08T05:36:44;3.90;98.10
37285;DHT22;23172;53.550;9.964;2024-03-08T05:41:48;3.90;98.10
37285;DHT22;23172;53.550;9.964;2024-03-08T05:46:50;3.90;98.10
37285;DHT22;23172;53.550;9.964;2024-03-08T05:51:52;3.90;98.10
37285;DHT22;23172;53.550;9.964;2024-03-08T05:56:56;3.90;98.20
37285;DHT22;23172;53.550;9.964;2024-03-08T06:01:58;3.90;98.20
37285;DHT22;23172;53.550;9.964;2024-03-08T06:07:00;3.90;98.20
37285;DHT22;23172;53.550;9.964;2024-03-08T06:12:05;3.90;98.30
37285;DHT22;23172;53.550;9.964;2024-03-08T06:17:07;3.90;98.30
37285;DHT22;23172;53.550;9.964;2024-03-08T06:22:09;3.90;98.20
37285;DHT22;23172;53.550;9.964;2024-03-08T06:27:12;3.90;98.30
37285;DHT22;23172;53.550;9.964;2024-03-08T06:32:14;4.00;98.30
37285;DHT22;23172;53.550;9.964;2024-03-08T06:37:17;4.00;98.30
37285;DHT22;23172;53.550;9.964;2024-03-08T06:42:23;4.10;98.40
37285;DHT22;23172;53.550;9.964;2024-03-08T06:47:25;4.10;98.30
37285;DHT22;23172;53.550;9.964;2024-03-08T06:52:27;4.20;98.30
37285;DHT22;23172;53.550;9.964;2024-03-08T06:57:31;4.20;98.20
37285;DHT22;23172;53.550;9.964;2024-03-08T07:02:33;4.30;98.10
37285;DHT22;23172;53.550;9.964;2024-03-08T07:07:36;4.40;98.00
37285;DHT22;23172;53.550;9.964;2024-03-08T07:12:39;4.40;97.90
37285;DHT22;23172;53.550;9.964;2024-03-08T07:17:41;4.50;97.70
37285;DHT22;23172;53.550;9.964;2024-03-08T07:22:44;4.60;97.60
37285;DHT22;23172;53.550;9.964;2024-03-08T07:27:50;4.60;97.50
37285;DHT22;23172;53.550;9.964;2024-03-08T07:32:53;4.70;97.30
37285;DHT22;23172;53.550;9.964;2024-03-08T07:37:55;4.80;97.10
37285;DHT22;23172;53.550;9.964;2024-03-08T07:42:58;4.90;96.90
37285;DHT22;23172;53.550;9.964;2024-03-08T07:48:00;5.00;96.60
37285;DHT22;23172;53.550;9.964;2024-03-08T07:53:03;5.10;96.20
37285;DHT22;23172;53.550;9.964;2024-03-08T07:58:08;5.10;95.90
37285;DHT22;23172;53.550;9.964;2024-03-08T08:03:11;5.20;95.80
37285;DHT22;23172;53.550;9.964;2024-03-08T08:08:13;5.40;95.40
37285;DHT22;23172;53.550;9.964;2024-03-08T08:13:16;5.50;95.00
37285;DHT22;23172;53.550;9.964;2024-03-08T08:18:18;5.50;94.70
37285;DHT22;23172;53.550;9.964;2024-03-08T08:23:25;5.60;94.30
37285;DHT22;23172;53.550;9.964;2024-03-08T08:28:28;5.70;93.70
37285;DHT22;23172;53.550;9.964;2024-03-08T08:33:32;5.80;93.70
37285;DHT22;23172;53.550;9.964;2024-03-08T08:38:35;5.90;93.20
37285;DHT22;23172;53.550;9.964;2024-03-08T08:43:40;6.00;92.20
37285;DHT22;23172;53.550;9.964;2024-03-08T08:48:44;6.10;91.80
37285;DHT22;23172;53.550;9.964;2024-03-08T08:53:47;6.20;91.60
37285;DHT22;23172;53.550;9.964;2024-03-08T08:58:50;6.30;91.30
37285;DHT22;23172;53.550;9.964;2024-03-08T09:03:53;6.40;91.30
37285;DHT22;23172;53.550;9.964;2024-03-08T09:08:55;6.60;90.80
37285;DHT22;23172;53.550;9.964;2024-03-08T09:13:59;6.60;89.30
37285;DHT22;23172;53.550;9.964;2024-03-08T09:19:02;6.70;88.70
37285;DHT22;23172;53.550;9.964;2024-03-08T09:24:05;6.80;87.70
37285;DHT22;23172;53.550;9.964;2024-03-08T09:29:08;6.90;86.50
37285;DHT22;23172;53.550;9.964;2024-03-08T09:34:11;7.00;85.80
37285;DHT22;23172;53.550;9.964;2024-03-08T09:39:13;7.10;85.00
37285;DHT22;23172;53.550;9.964;2024-03-08T09:44:18;7.30;84.30
37285;DHT22;23172;53.550;9.964;2024-03-08T09:49:21;7.40;83.90
37285;DHT22;23172;53.550;9.964;2024-03-08T09:54:23;7.50;82.90
37285;DHT22;23172;53.550;9.964;2024-03-08T09:59:28;7.60;81.70
37285;DHT22;23172;53.550;9.964;2024-03-08T10:04:48;7.80;81.10
37285;DHT22;23172;53.550;9.964;2024-03-08T10:09:52;7.90;79.60
37285;DHT22;23172;53.550;9.964;2024-03-08T10:14:57;7.90;77.30
37285;DHT22;23172;53.550;9.964;2024-03-08T10:19:59;7.90;75.70
37285;DHT22;23172;53.550;9.964;2024-03-08T10:25:02;7.90;74.50
37285;DHT22;23172;53.550;9.964;2024-03-08T10:30:10;7.90;74.60
37285;DHT22;23172;53.550;9.964;2024-03-08T10:35:14;8.00;73.20
37285;DHT22;23172;53.550;9.964;2024-03-08T10:40:18;8.00;72.10
37285;DHT22;23172;53.550;9.964;2024-03-08T10:45:31;8.10;72.50
37285;DHT22;23172;53.550;9.964;2024-03-08T10:50:33;8.20;71.50
37285;DHT22;23172;53.550;9.964;2024-03-08T10:55:37;8.20;70.50
37285;DHT22;23172;53.550;9.964;2024-03-08T11:00:42;8.20;70.10
37285;DHT22;23172;53.550;9.964;2024-03-08T11:05:44;8.30;69.70
37285;DHT22;23172;53.550;9.964;2024-03-08T11:10:49;8.30;68.10
37285;DHT22;23172;53.550;9.964;2024-03-08T11:15:54;8.40;67.90
37285;DHT22;23172;53.550;9.964;2024-03-08T11:20:57;8.40;67.30
37285;DHT22;23172;53.550;9.964;2024-03-08T11:25:59;8.40;67.20
37285;DHT22;23172;53.550;9.964;2024-03-08T11:31:24;8.40;66.20
37285;DHT22;23172;53.550;9.964;2024-03-08T11:36:27;8.50;66.60
37285;DHT22;23172;53.550;9.964;2024-03-08T11:41:30;8.60;66.50
37285;DHT22;23172;53.550;9.964;2024-03-08T11:46:33;8.70;66.20
37285;DHT22;23172;53.550;9.964;2024-03-08T11:51:35;8.80;65.80
37285;DHT22;23172;53.550;9.964;2024-03-08T11:56:37;8.80;65.50
37285;DHT22;23172;53.550;9.964;2024-03-08T12:01:42;8.90;65.60
37285;DHT22;23172;53.550;9.964;2024-03-08T12:06:44;9.00;64.80
37285;DHT22;23172;53.550;9.964;2024-03-08T12:11:48;9.00;64.00
37285;DHT22;23172;53.550;9.964;2024-03-08T12:16:52;9.00;62.70
37285;DHT22;23172;53.550;9.964;2024-03-08T12:21:54;8.90;62.50
37285;DHT22;23172;53.550;9.964;2024-03-08T12:26:56;8.90;62.70
37285;DHT22;23172;53.550;9.964;2024-03-08T12:32:00;9.00;62.80
37285;DHT22;23172;53.550;9.964;2024-03-08T12:37:04;9.10;62.50
37285;DHT22;23172;53.550;9.964;2024-03-08T12:42:07;9.10;62.40
37285;DHT22;23172;53.550;9.964;2024-03-08T12:47:10;9.20;62.30
37285;DHT22;23172;53.550;9.964;2024-03-08T12:52:12;9.30;61.90
37285;DHT22;23172;53.550;9.964;2024-03-08T12:57:14;9.30;61.20
37285;DHT22;23172;53.550;9.964;2024-03-08T13:02:18;9.30;60.60
37285;DHT22;23172;53.550;9.964;2024-03-08T13:07:21;9.40;61.00
37285;DHT22;23172;53.550;9.964;2024-03-08T13:12:24;9.40;60.90
37285;DHT22;23172;53.550;9.964;2024-03-08T13:17:27;9.40;60.70
37285;DHT22;23172;53.550;9.964;2024-03-08T13:22:29;9.60;60.40
37285;DHT22;23172;53.550;9.964;2024-03-08T13:27:31;9.60;59.30
37285;DHT22;23172;53.550;9.964;2024-03-08T13:32:34;9.60;59.00
37285;DHT22;23172;53.550;9.964;2024-03-08T13:37:36;9.60;59.00
37285;DHT22;23172;53.550;9.964;2024-03-08T13:42:38;9.70;58.70
37285;DHT22;23172;53.550;9.964;2024-03-08T13:47:41;9.70;58.80
37285;DHT22;23172;53.550;9.964;2024-03-08T13:52:44;9.80;58.80
37285;DHT22;23172;53.550;9.964;2024-03-08T13:57:46;9.80;58.40
37285;DHT22;23172;53.550;9.964;2024-03-08T14:02:50;9.90;58.60
37285;DHT22;23172;53.550;9.964;2024-03-08T14:07:52;10.00;58.40
37285;DHT22;23172;53.550;9.964;2024-03-08T14:12:54;10.00;58.20
37285;DHT22;23172;53.550;9.964;2024-03-08T14:17:57;10.00;57.80
37285;DHT22;23172;53.550;9.964;2024-03-08T14:23:00;10.00;57.60
37285;DHT22;23172;53.550;9.964;2024-03-08T14:28:01;10.10;57.50
37285;DHT22;23172;53.550;9.964;2024-03-08T14:33:08;10.10;57.20
37285;DHT22;23172;53.550;9.964;2024-03-08T14:38:10;10.00;56.90
37285;DHT22;23172;53.550;9.964;2024-03-08T14:43:13;10.10;56.70
37285;DHT22;23172;53.550;9.964;2024-03-08T14:48:16;10.10;56.50
37285;DHT22;23172;53.550;9.964;2024-03-08T14:53:18;10.10;56.70
37285;DHT22;23172;53.550;9.964;2024-03-08T14:58:20;10.10;56.10
37285;DHT22;23172;53.550;9.964;2024-03-08T15:03:25;10.10;55.90
37285;DHT22;23172;53.550;9.964;2024-03-08T15:08:29;10.10;55.90
37285;DHT22;23172;53.550;9.964;2024-03-08T15:13:31;10.20;55.90
37285;DHT22;23172;53.550;9.964;2024-03-08T15:18:40;10.20;55.70
37285;DHT22;23172;53.550;9.964;2024-03-08T15:23:47;10.20;55.50
37285;DHT22;23172;53.550;9.964;2024-03-08T15:28:52;10.20;55.30
37285;DHT22;23172;53.550;9.964;2024-03-08T15:33:57;10.10;54.80
37285;DHT22;23172;53.550;9.964;2024-03-08T15:39:01;10.10;55.50
37285;DHT22;23172;53.550;9.964;2024-03-08T15:44:03;10.10;54.80
37285;DHT22;23172;53.550;9.964;2024-03-08T15:49:06;10.10;54.60
37285;DHT22;23172;53.550;9.964;2024-03-08T15:54:09;10.10;54.70
37285;DHT22;23172;53.550;9.964;2024-03-08T15:59:25;10.10;54.70
37285;DHT22;23172;53.550;9.964;2024-03-08T16:05:01;10.10;54.60
37285;DHT22;23172;53.550;9.964;2024-03-08T16:10:35;10.10;54.70
37285;DHT22;23172;53.550;9.964;2024-03-08T16:15:55;10.00;54.70
37285;DHT22;23172;53.550;9.964;2024-03-08T16:26:34;10.00;54.80
37285;DHT22;23172;53.550;9.964;2024-03-08T16:31:36;10.00;54.60
37285;DHT22;23172;53.550;9.964;2024-03-08T16:36:42;9.90;54.80
37285;DHT22;23172;53.550;9.964;2024-03-08T16:41:44;9.90;54.90
37285;DHT22;23172;53.550;9.964;2024-03-08T16:46:46;9.90;54.90
37285;DHT22;23172;53.550;9.964;2024-03-08T16:51:51;9.80;54.90
37285;DHT22;23172;53.550;9.964;2024-03-08T16:56:53;9.80;54.90
37285;DHT22;23172;53.550;9.964;2024-03-08T17:01:54;9.70;55.50
37285;DHT22;23172;53.550;9.964;2024-03-08T17:06:58;9.70;55.00
37285;DHT22;23172;53.550;9.964;2024-03-08T17:12:00;9.60;55.10
37285;DHT22;23172;53.550;9.964;2024-03-08T17:17:05;9.50;55.40
37285;DHT22;23172;53.550;9.964;2024-03-08T17:22:09;9.50;56.20
37285;DHT22;23172;53.550;9.964;2024-03-08T17:27:11;9.40;56.90
37285;DHT22;23172;53.550;9.964;2024-03-08T17:32:14;9.30;57.50
37285;DHT22;23172;53.550;9.964;2024-03-08T17:37:18;9.30;58.00
37285;DHT22;23172;53.550;9.964;2024-03-08T17:42:20;9.20;58.50
37285;DHT22;23172;53.550;9.964;2024-03-08T17:47:23;9.20;58.70
37285;DHT22;23172;53.550;9.964;2024-03-08T17:52:28;9.10;59.10
37285;DHT22;23172;53.550;9.964;2024-03-08T17:57:30;9.10;59.50
37285;DHT22;23172;53.550;9.964;2024-03-08T18:02:32;9.00;59.80
37285;DHT22;23172;53.550;9.964;2024-03-08T18:07:36;9.00;60.10
37285;DHT22;23172;53.550;9.964;2024-03-08T18:12:39;8.90;60.40
37285;DHT22;23172;53.550;9.964;2024-03-08T18:17:41;8.90;60.60
37285;DHT22;23172;53.550;9.964;2024-03-08T18:22:44;8.80;60.70
37285;DHT22;23172;53.550;9.964;2024-03-08T18:27:46;8.80;60.80
37285;DHT22;23172;53.550;9.964;2024-03-08T18:32:48;8.70;60.80
37285;DHT22;23172;53.550;9.964;2024-03-08T18:37:53;8.70;60.80
37285;DHT22;23172;53.550;9.964;2024-03-08T18:42:56;8.70;60.80
37285;DHT22;23172;53.550;9.964;2024-03-08T18:47:58;8.60;60.80
37285;DHT22;23172;53.550;9.964;2024-03-08T18:53:02;8.60;60.90
37285;DHT22;23172;53.550;9.964;2024-03-08T18:58:04;8.50;60.90
37285;DHT22;23172;53.550;9.964;2024-03-08T19:03:07;8.50;61.00
37285;DHT22;23172;53.550;9.964;2024-03-08T19:08:11;8.40;61.00
37285;DHT22;23172;53.550;9.964;2024-03-08T19:13:14;8.40;61.10
37285;DHT22;23172;53.550;9.964;2024-03-08T19:18:17;8.30;61.10
37285;DHT22;23172;53.550;9.964;2024-03-08T19:23:20;8.30;61.30
37285;DHT22;23172;53.550;9.964;2024-03-08T19:28:23;8.30;61.30
37285;DHT22;23172;53.550;9.964;2024-03-08T19:33:25;8.20;61.30
37285;DHT22;23172;53.550;9.964;2024-03-08T19:38:29;8.20;61.40
37285;DHT22;23172;53.550;9.964;2024-03-08T19:43:31;8.20;61.60
37285;DHT22;23172;53.550;9.964;2024-03-08T19:48:33;8.20;61.60
37285;DHT22;23172;53.550;9.964;2024-03-08T19:53:37;8.10;61.60
37285;DHT22;23172;53.550;9.964;2024-03-08T19:58:39;8.10;61.60
37285;DHT22;23172;53.550;9.964;2024-03-08T20:03:42;8.10;61.70
37285;DHT22;23172;53.550;9.964;2024-03-08T20:08:46;8.10;61.70
37285;DHT22;23172;53.550;9.964;2024-03-08T20:13:48;8.00;61.80
37285;DHT22;23172;53.550;9.964;2024-03-08T20:18:50;8.00;61.90
37285;DHT22;23172;53.550;9.964;2024-03-08T20:23:53;8.00;62.40
37285;DHT22;23172;53.550;9.964;2024-03-08T20:28:55;8.00;63.10
37285;DHT22;23172;53.550;9.964;2024-03-08T20:33:58;7.90;62.50
37285;DHT22;23172;53.550;9.964;2024-03-08T20:39:01;7.90;62.40
37285;DHT22;23172;53.550;9.964;2024-03-08T20:44:03;7.90;62.60
37285;DHT22;23172;53.550;9.964;2024-03-08T20:49:08;7.90;62.60
37285;DHT22;23172;53.550;9.964;2024-03-08T20:54:11;7.90;62.60
37285;DHT22;23172;53.550;9.964;2024-03-08T20:59:14;7.80;62.60
37285;DHT22;23172;53.550;9.964;2024-03-08T21:04:16;7.80;62.70
37285;DHT22;23172;53.550;9.964;2024-03-08T21:09:19;7.80;62.60
37285;DHT22;23172;53.550;9.964;2024-03-08T21:14:23;7.80;62.70
37285;DHT22;23172;53.550;9.964;2024-03-08T21:19:25;7.80;62.70
37285;DHT22;23172;53.550;9.964;2024-03-08T21:24:29;7.70;63.50
37285;DHT22;23172;53.550;9.964;2024-03-08T21:29:32;7.70;62.70
37285;DHT22;23172;53.550;9.964;2024-03-08T21:34:39;7.70;62.70
37285;DHT22;23172;53.550;9.964;2024-03-08T21:39:42;7.70;62.70
37285;DHT22;23172;53.550;9.964;2024-03-08T21:44:44;7.60;62.70
37285;DHT22;23172;53.550;9.964;2024-03-08T21:49:47;7.60;63.00
37285;DHT22;23172;53.550;9.964;2024-03-08T21:54:52;7.60;62.90
37285;DHT22;23172;53.550;9.964;2024-03-08T21:59:54;7.60;62.70
37285;DHT22;23172;53.550;9.964;2024-03-08T22:04:56;7.60;63.50
37285;DHT22;23172;53.550;9.964;2024-03-08T22:09:59;7.60;62.80
37285;DHT22;23172;53.550;9.964;2024-03-08T22:15:01;7.50;62.90
37285;DHT22;23172;53.550;9.964;2024-03-08T22:20:05;7.50;62.90
37285;DHT22;23172;53.550;9.964;2024-03-08T22:25:12;7.50;62.90
37285;DHT22;23172;53.550;9.964;2024-03-08T22:30:19;7.40;62.90
37285;DHT22;23172;53.550;9.964;2024-03-08T22:35:21;7.40;63.10
37285;DHT22;23172;53.550;9.964;2024-03-08T22:40:25;7.40;63.20
37285;DHT22;23172;53.550;9.964;2024-03-08T22:45:28;7.40;63.40
37285;DHT22;23172;53.550;9.964;2024-03-08T22:50:31;7.30;63.30
37285;DHT22;23172;53.550;9.964;2024-03-08T22:55:34;7.30;63.60
37285;DHT22;23172;53.550;9.964;2024-03-08T23:00:36;7.30;63.60
37285;DHT22;23172;53.550;9.964;2024-03-08T23:05:55;7.20;63.60
37285;DHT22;23172;53.550;9.964;2024-03-08T23:10:59;7.20;63.80
37285;DHT22;23172;53.550;9.964;2024-03-08T23:16:02;7.20;64.00
37285;DHT22;23172;53.550;9.964;2024-03-08T23:21:08;7.20;64.10
37285;DHT22;23172;53.550;9.964;2024-03-08T23:26:11;7.20;64.20
37285;DHT22;23172;53.550;9.964;2024-03-08T23:31:15;7.10;64.10
37285;DHT22;23172;53.550;9.964;2024-03-08T23:36:17;7.10;64.30
37285;DHT22;23172;53.550;9.964;2024-03-08T23:41:21;7.10;64.30
37285;DHT22;23172;53.550;9.964;2024-03-08T23:46:24;7.10;64.30
37285;DHT22;23172;53.550;9.964;2024-03-08T23:51:26;7.10;64.30
37285;DHT22;23172;53.550;9.964;2024-03-08T23:56:30;7.10;64.50
